createdAt,value
2017-10-20T00:00:36.389Z,23.1
2017-10-20T00:01:37.849Z,23.2
2017-10-20T00:02:40.006Z,23.1
2017-10-20T00:03:41.839Z,23.2
2017-10-20T00:04:43.652Z,23.1
2017-10-20T00:05:45.468Z,23.1
2017-10-20T00:06:47.290Z,23
2017-10-20T00:07:49.127Z,23.1
2017-10-20T00:08:50.929Z,23.1
2017-10-20T00:09:53.097Z,23.1
2017-10-20T00:10:54.549Z,23.2
2017-10-20T00:11:56.010Z,23.1
2017-10-20T00:12:57.831Z,23.1
2017-10-20T00:13:59.649Z,23.1
2017-10-20T00:15:01.832Z,23.2
2017-10-20T00:16:03.652Z,23.1
2017-10-20T00:17:05.473Z,23.1
2017-10-20T00:18:06.949Z,23.2
2017-10-20T00:19:08.416Z,23.1
2017-10-20T00:20:10.571Z,23.1
2017-10-20T00:21:12.390Z,23.2
2017-10-20T00:22:14.188Z,23.1
2017-10-20T00:23:15.988Z,23.1
2017-10-20T00:24:17.442Z,23.2
2017-10-20T00:25:19.268Z,23.2
2017-10-20T00:26:21.085Z,23.2
2017-10-20T00:27:22.588Z,23.1
2017-10-20T00:28:24.408Z,23.1
2017-10-20T00:29:26.572Z,23.2
2017-10-20T00:30:28.735Z,23.1
2017-10-20T00:31:30.213Z,23.1
2017-10-20T00:32:32.021Z,23.2
2017-10-20T00:33:33.817Z,23.1
2017-10-20T00:34:35.637Z,23.2
2017-10-20T00:35:37.456Z,23.1
2017-10-20T00:36:38.569Z,23.1
2017-10-20T00:37:40.733Z,23.1
2017-10-20T00:38:42.213Z,23.1
2017-10-20T00:39:44.033Z,23.1
2017-10-20T00:40:46.197Z,23.1
2017-10-20T00:41:47.680Z,23.1
2017-10-20T00:42:49.137Z,23.2
2017-10-20T00:43:50.961Z,23.1
2017-10-20T00:44:53.128Z,23.1
2017-10-20T00:45:55.294Z,23.1
2017-10-20T00:46:57.457Z,23.1
2017-10-20T00:47:59.278Z,23
2017-10-20T00:49:00.752Z,23
2017-10-20T00:50:02.923Z,23.1
2017-10-20T00:51:04.738Z,23.1
2017-10-20T00:52:06.537Z,23.1
2017-10-20T00:53:08.338Z,23.1
2017-10-20T00:54:09.792Z,23.1
2017-10-20T00:55:11.965Z,23.1
2017-10-20T00:56:13.789Z,23
2017-10-20T00:57:15.950Z,23.1
2017-10-20T00:58:17.771Z,23
2017-10-20T00:59:19.594Z,23.1
2017-10-20T01:00:21.761Z,23
2017-10-20T01:01:23.924Z,23.1
2017-10-20T01:02:26.090Z,23.1
2017-10-20T01:03:27.892Z,23
2017-10-20T01:04:29.691Z,23.1
2017-10-20T01:05:31.861Z,23.1
2017-10-20T01:06:34.024Z,23.1
2017-10-20T01:07:35.500Z,23.1
2017-10-20T01:08:36.952Z,23
2017-10-20T01:09:38.769Z,23
2017-10-20T01:10:40.578Z,23
2017-10-20T01:11:42.401Z,23
2017-10-20T01:12:43.853Z,23
2017-10-20T01:13:46.028Z,23.1
2017-10-20T01:14:47.473Z,23
2017-10-20T01:15:49.636Z,23
2017-10-20T01:16:51.801Z,23
2017-10-20T01:17:53.620Z,23
2017-10-20T01:18:55.076Z,23.1
2017-10-20T01:19:56.927Z,23.1
2017-10-20T01:20:59.092Z,23
2017-10-20T01:22:00.915Z,23
2017-10-20T01:23:02.711Z,23
2017-10-20T01:24:04.512Z,23
2017-10-20T01:25:06.353Z,23.1
2017-10-20T01:26:08.171Z,23
2017-10-20T01:27:10.337Z,23
2017-10-20T01:28:12.156Z,23.1
2017-10-20T01:29:14.332Z,23
2017-10-20T01:30:15.807Z,23.1
2017-10-20T01:31:17.999Z,23.1
2017-10-20T01:32:20.163Z,23
2017-10-20T01:33:22.008Z,23
2017-10-20T01:34:24.171Z,23.1
2017-10-20T01:35:25.991Z,23
2017-10-20T01:36:27.792Z,23
2017-10-20T01:37:29.255Z,23
2017-10-20T01:38:31.074Z,23
2017-10-20T01:39:32.902Z,23
2017-10-20T01:40:34.717Z,23
2017-10-20T01:41:36.897Z,23
2017-10-20T01:42:39.048Z,23
2017-10-20T01:43:40.870Z,23
2017-10-20T01:44:42.669Z,23.1
2017-10-20T01:45:44.832Z,23
2017-10-20T01:46:46.307Z,23.1
2017-10-20T01:47:47.761Z,23
2017-10-20T01:48:49.214Z,23
2017-10-20T01:49:51.378Z,23
2017-10-20T01:50:53.198Z,23
2017-10-20T01:51:55.016Z,23
2017-10-20T01:52:56.835Z,23
2017-10-20T01:53:58.998Z,23
2017-10-20T01:55:00.818Z,23.1
2017-10-20T01:56:02.638Z,23
2017-10-20T01:57:04.101Z,23
2017-10-20T01:58:06.258Z,23
2017-10-20T01:59:08.420Z,23
2017-10-20T02:00:10.250Z,23
2017-10-20T02:01:12.418Z,23
2017-10-20T02:02:13.874Z,23
2017-10-20T02:03:15.695Z,23
2017-10-20T02:04:17.521Z,23
2017-10-20T02:05:19.702Z,23.1
2017-10-20T02:06:21.856Z,23
2017-10-20T02:07:23.677Z,23
2017-10-20T02:08:25.844Z,23
2017-10-20T02:09:28.008Z,23
2017-10-20T02:10:29.829Z,23
2017-10-20T02:11:31.995Z,23
2017-10-20T02:12:34.161Z,23
2017-10-20T02:13:35.274Z,23
2017-10-20T02:14:37.439Z,23
2017-10-20T02:15:39.275Z,23
2017-10-20T02:16:41.093Z,23
2017-10-20T02:17:42.895Z,23
2017-10-20T02:18:44.383Z,23
2017-10-20T02:19:46.170Z,23
2017-10-20T02:20:47.625Z,23.1
2017-10-20T02:21:49.460Z,23
2017-10-20T02:22:51.626Z,23.1
2017-10-20T02:23:53.790Z,23
2017-10-20T02:24:55.246Z,23
2017-10-20T02:25:57.412Z,23
2017-10-20T02:26:58.546Z,23
2017-10-20T02:28:00.714Z,22.9
2017-10-20T02:29:02.193Z,22.9
2017-10-20T02:30:04.357Z,22.9
2017-10-20T02:31:06.179Z,23
2017-10-20T02:32:07.656Z,23
2017-10-20T02:33:09.479Z,22.9
2017-10-20T02:34:11.644Z,23
2017-10-20T02:35:13.123Z,23.1
2017-10-20T02:36:15.290Z,23
2017-10-20T02:37:17.454Z,23
2017-10-20T02:38:18.918Z,23
2017-10-20T02:39:21.077Z,23
2017-10-20T02:40:22.897Z,22.9
2017-10-20T02:41:24.716Z,22.9
2017-10-20T02:42:26.536Z,23
2017-10-20T02:43:28.334Z,23
2017-10-20T02:44:30.157Z,23
2017-10-20T02:45:32.320Z,23
2017-10-20T02:46:34.485Z,22.9
2017-10-20T02:47:36.313Z,23
2017-10-20T02:48:38.474Z,23
2017-10-20T02:49:40.291Z,22.9
2017-10-20T02:50:41.745Z,23
2017-10-20T02:51:43.908Z,23
2017-10-20T02:52:45.744Z,22.9
2017-10-20T02:53:47.196Z,23
2017-10-20T02:54:49.360Z,23
2017-10-20T02:55:51.523Z,23
2017-10-20T02:56:53.686Z,23
2017-10-20T02:57:55.484Z,22.9
2017-10-20T02:58:57.650Z,23
2017-10-20T02:59:59.124Z,23
2017-10-20T03:01:00.946Z,23
2017-10-20T03:02:02.400Z,23
2017-10-20T03:03:04.221Z,22.9
2017-10-20T03:04:06.398Z,22.9
2017-10-20T03:05:08.579Z,22.9
2017-10-20T03:06:10.400Z,23
2017-10-20T03:07:12.201Z,23
2017-10-20T03:08:14.367Z,22.9
2017-10-20T03:09:15.476Z,23
2017-10-20T03:10:17.315Z,23
2017-10-20T03:11:19.477Z,23
2017-10-20T03:12:20.939Z,23
2017-10-20T03:13:22.755Z,23
2017-10-20T03:14:24.548Z,22.9
2017-10-20T03:15:26.004Z,23
2017-10-20T03:16:27.800Z,23
2017-10-20T03:17:29.619Z,23
2017-10-20T03:18:31.784Z,23
2017-10-20T03:19:33.264Z,23
2017-10-20T03:20:34.725Z,22.9
2017-10-20T03:21:36.176Z,23
2017-10-20T03:22:37.974Z,23
2017-10-20T03:23:40.141Z,22.9
2017-10-20T03:24:41.958Z,23
2017-10-20T03:25:44.122Z,22.9
2017-10-20T03:26:46.289Z,23
2017-10-20T03:27:48.111Z,23
2017-10-20T03:28:49.931Z,22.9
2017-10-20T03:29:52.096Z,22.9
2017-10-20T03:30:53.578Z,23
2017-10-20T03:31:55.398Z,23
2017-10-20T03:32:57.194Z,22.9
2017-10-20T03:33:58.671Z,22.9
2017-10-20T03:35:00.835Z,22.9
2017-10-20T03:36:02.659Z,23
2017-10-20T03:37:04.481Z,23
2017-10-20T03:38:06.645Z,22.9
2017-10-20T03:39:08.100Z,22.9
2017-10-20T03:40:09.919Z,23
2017-10-20T03:41:12.081Z,22.9
2017-10-20T03:42:13.881Z,22.9
2017-10-20T03:43:15.336Z,23
2017-10-20T03:44:16.812Z,22.9
2017-10-20T03:45:18.975Z,22.9
2017-10-20T03:46:21.144Z,23
2017-10-20T03:47:22.936Z,22.9
2017-10-20T03:48:24.393Z,22.9
2017-10-20T03:49:26.220Z,22.9
2017-10-20T03:50:28.382Z,23
2017-10-20T03:51:30.199Z,23
2017-10-20T03:52:32.370Z,22.9
2017-10-20T03:53:33.830Z,22.9
2017-10-20T03:54:35.996Z,22.9
2017-10-20T03:55:37.821Z,22.8
2017-10-20T03:56:39.982Z,22.9
2017-10-20T03:57:41.784Z,22.9
2017-10-20T03:58:43.946Z,23
2017-10-20T03:59:46.111Z,22.9
2017-10-20T04:00:47.931Z,22.9
2017-10-20T04:01:50.099Z,22.9
2017-10-20T04:02:51.898Z,22.9
2017-10-20T04:03:54.061Z,22.9
2017-10-20T04:04:55.860Z,22.9
2017-10-20T04:05:57.691Z,22.9
2017-10-20T04:06:59.147Z,22.9
2017-10-20T04:08:01.312Z,22.9
2017-10-20T04:09:03.477Z,22.9
2017-10-20T04:10:04.931Z,22.9
2017-10-20T04:11:06.744Z,22.9
2017-10-20T04:12:08.564Z,22.9
2017-10-20T04:13:10.729Z,22.9
2017-10-20T04:14:12.552Z,22.9
2017-10-20T04:15:14.370Z,22.9
2017-10-20T04:16:16.532Z,22.9
2017-10-20T04:17:18.352Z,23
2017-10-20T04:18:20.519Z,22.9
2017-10-20T04:19:22.339Z,22.9
2017-10-20T04:20:23.794Z,22.9
2017-10-20T04:21:25.615Z,22.9
2017-10-20T04:22:27.777Z,22.9
2017-10-20T04:23:29.941Z,22.9
2017-10-20T04:24:31.417Z,23
2017-10-20T04:25:33.580Z,23
2017-10-20T04:26:35.745Z,23
2017-10-20T04:27:37.565Z,23
2017-10-20T04:28:39.364Z,23
2017-10-20T04:29:41.527Z,23
2017-10-20T04:30:43.016Z,23
2017-10-20T04:31:45.169Z,23
2017-10-20T04:32:46.967Z,23
2017-10-20T04:33:49.133Z,23
2017-10-20T04:34:50.979Z,23.1
2017-10-20T04:35:52.790Z,23
2017-10-20T04:36:54.593Z,23.1
2017-10-20T04:37:56.757Z,23
2017-10-20T04:38:58.926Z,23.1
2017-10-20T04:40:00.378Z,23.1
2017-10-20T04:41:01.858Z,23.1
2017-10-20T04:42:03.658Z,23.1
2017-10-20T04:43:05.136Z,23
2017-10-20T04:44:07.296Z,23.1
2017-10-20T04:45:09.139Z,23.1
2017-10-20T04:46:10.273Z,23.1
2017-10-20T04:47:12.095Z,23.1
2017-10-20T04:48:14.264Z,23.2
2017-10-20T04:49:15.738Z,23.1
2017-10-20T04:50:17.560Z,23.1
2017-10-20T04:51:19.358Z,23.1
2017-10-20T04:52:20.808Z,23.1
2017-10-20T04:53:22.625Z,23.1
2017-10-20T04:54:24.444Z,23.1
2017-10-20T04:55:26.256Z,23.1
2017-10-20T04:56:28.420Z,23.2
2017-10-20T04:57:30.603Z,23.2
2017-10-20T04:58:32.786Z,23.1
2017-10-20T04:59:34.587Z,23.1
2017-10-20T05:00:36.407Z,23.1
2017-10-20T05:01:38.230Z,23.2
2017-10-20T05:02:40.391Z,23.2
2017-10-20T05:03:42.212Z,23.1
2017-10-20T05:04:43.688Z,23.2
2017-10-20T05:05:45.486Z,23.1
2017-10-20T05:06:47.653Z,23.2
2017-10-20T05:07:49.474Z,23.2
2017-10-20T05:08:51.639Z,23.2
2017-10-20T05:09:53.127Z,23.2
2017-10-20T05:10:54.946Z,23.2
2017-10-20T05:11:56.400Z,23.2
2017-10-20T05:12:57.857Z,23.2
2017-10-20T05:13:59.313Z,23.2
2017-10-20T05:15:01.112Z,23.2
2017-10-20T05:16:02.223Z,23.2
2017-10-20T05:17:04.387Z,23.2
2017-10-20T05:18:06.187Z,23.2
2017-10-20T05:19:07.670Z,23.2
2017-10-20T05:20:09.463Z,23.2
2017-10-20T05:21:11.630Z,23.2
2017-10-20T05:22:13.448Z,23.3
2017-10-20T05:23:15.269Z,23.2
2017-10-20T05:24:17.444Z,23.2
2017-10-20T05:25:18.903Z,23.3
2017-10-20T05:26:20.701Z,23.2
2017-10-20T05:27:22.874Z,23.2
2017-10-20T05:28:25.052Z,23.2
2017-10-20T05:29:27.218Z,23.2
2017-10-20T05:30:29.017Z,23.2
2017-10-20T05:31:30.493Z,23.2
2017-10-20T05:32:32.292Z,23.2
2017-10-20T05:33:34.467Z,23.2
2017-10-20T05:34:36.622Z,23.2
2017-10-20T05:35:38.442Z,23.2
2017-10-20T05:36:40.261Z,23.3
2017-10-20T05:37:42.079Z,23.2
2017-10-20T05:38:43.547Z,23.1
2017-10-20T05:39:45.001Z,23.2
2017-10-20T05:40:47.164Z,23.2
2017-10-20T05:41:49.326Z,23.3
2017-10-20T05:42:50.783Z,23.3
2017-10-20T05:43:52.947Z,23.3
2017-10-20T05:44:54.405Z,23.3
2017-10-20T05:45:56.571Z,23.3
2017-10-20T05:46:57.334Z,23.3
2017-10-20T05:47:59.156Z,23.3
2017-10-20T05:49:00.656Z,23.3
2017-10-20T05:50:02.544Z,23.3
2017-10-20T05:51:03.999Z,23.3
2017-10-20T05:52:06.169Z,23.2
2017-10-20T05:53:07.993Z,23.3
2017-10-20T05:54:09.816Z,23.3
2017-10-20T05:55:11.976Z,23.3
2017-10-20T05:56:13.086Z,23.3
2017-10-20T05:57:14.204Z,23.2
2017-10-20T05:58:16.027Z,23.3
2017-10-20T05:59:18.216Z,23.3
2017-10-20T06:00:20.386Z,23.2
2017-10-20T06:01:21.609Z,23.3
2017-10-20T06:02:23.418Z,23.3
2017-10-20T06:03:25.241Z,23.2
2017-10-20T06:04:27.065Z,23.2
2017-10-20T06:05:28.528Z,23.3
2017-10-20T06:06:29.306Z,23.2
2017-10-20T06:07:30.452Z,23.2
2017-10-20T06:08:32.281Z,23.3
2017-10-20T06:09:33.764Z,23.3
2017-10-20T06:10:35.932Z,23.3
2017-10-20T06:11:37.763Z,23.3
2017-10-20T06:12:38.882Z,23.3
2017-10-20T06:13:40.345Z,23.3
2017-10-20T06:14:42.179Z,23.3
2017-10-20T06:15:43.663Z,23.3
2017-10-20T06:16:45.488Z,23.3
2017-10-20T06:17:47.306Z,23.3
2017-10-20T06:18:49.128Z,23.3
2017-10-20T06:19:50.952Z,23.3
2017-10-20T06:20:52.434Z,23.3
2017-10-20T06:21:53.912Z,23.2
2017-10-20T06:22:56.089Z,23.3
2017-10-20T06:23:57.553Z,23.2
2017-10-20T06:24:58.700Z,23.3
2017-10-20T06:26:00.870Z,23.2
2017-10-20T06:27:02.328Z,23.3
2017-10-20T06:28:03.793Z,23.3
2017-10-20T06:29:05.620Z,23.4
2017-10-20T06:30:07.429Z,23.3
2017-10-20T06:31:08.886Z,23.3
2017-10-20T06:32:10.714Z,23.3
2017-10-20T06:33:12.521Z,23.3
2017-10-20T06:34:14.686Z,23.3
2017-10-20T06:35:16.851Z,23.3
2017-10-20T06:36:17.964Z,23.3
2017-10-20T06:37:19.794Z,23.3
2017-10-20T06:38:21.590Z,23.3
2017-10-20T06:39:23.820Z,23.3
2017-10-20T06:40:25.630Z,23.3
2017-10-20T06:41:27.451Z,23.3
2017-10-20T06:42:29.279Z,23.3
2017-10-20T06:43:31.455Z,23.3
2017-10-20T06:44:33.621Z,23.3
2017-10-20T06:45:35.819Z,23.3
2017-10-20T06:46:37.754Z,23.3
2017-10-20T06:47:39.934Z,23.3
2017-10-20T06:48:41.741Z,23.3
2017-10-20T06:49:43.564Z,23.2
2017-10-20T06:50:45.737Z,23.3
2017-10-20T06:51:47.562Z,23.3
2017-10-20T06:52:48.697Z,23.3
2017-10-20T06:53:50.705Z,23.4
2017-10-20T06:54:52.275Z,23.2
2017-10-20T06:55:53.926Z,23.3
2017-10-20T06:56:55.750Z,23.3
2017-10-20T06:57:57.575Z,23.3
2017-10-20T06:58:59.030Z,23.3
2017-10-20T07:00:00.870Z,23.3
2017-10-20T07:01:02.349Z,23.3
2017-10-20T07:02:03.830Z,23.3
2017-10-20T07:03:05.354Z,23.4
2017-10-20T07:04:07.182Z,23.3
2017-10-20T07:05:09.357Z,23.2
2017-10-20T07:06:11.171Z,23.3
2017-10-20T07:07:12.702Z,23.3
2017-10-20T07:08:14.543Z,23.4
2017-10-20T07:09:16.701Z,23.4
2017-10-20T07:10:18.528Z,23.3
2017-10-20T07:11:19.987Z,23.3
2017-10-20T07:12:22.154Z,23.4
2017-10-20T07:13:23.978Z,23.3
2017-10-20T07:14:26.147Z,23.3
2017-10-20T07:15:27.974Z,23.3
2017-10-20T07:16:29.095Z,23.3
2017-10-20T07:17:30.894Z,23.3
2017-10-20T07:18:32.357Z,23.3
2017-10-20T07:19:33.892Z,23.4
2017-10-20T07:20:35.722Z,23.4
2017-10-20T07:21:37.206Z,23.4
2017-10-20T07:22:39.385Z,23.3
2017-10-20T07:23:41.203Z,23.3
2017-10-20T07:24:43.369Z,23.4
2017-10-20T07:25:45.540Z,23.3
2017-10-20T07:26:47.709Z,23.3
2017-10-20T07:27:49.873Z,23.3
2017-10-20T07:28:51.681Z,23.3
2017-10-20T07:29:53.503Z,23.3
2017-10-20T07:30:55.302Z,23.3
2017-10-20T07:31:57.123Z,23.2
2017-10-20T07:32:58.927Z,23.3
2017-10-20T07:34:00.408Z,23.4
2017-10-20T07:35:02.574Z,23.3
2017-10-20T07:36:03.693Z,23.2
2017-10-20T07:37:05.865Z,23.4
2017-10-20T07:38:08.033Z,23.3
2017-10-20T07:39:09.855Z,23.3
2017-10-20T07:40:12.024Z,23.3
2017-10-20T07:41:13.509Z,23.3
2017-10-20T07:42:15.680Z,23.3
2017-10-20T07:43:16.815Z,23.3
2017-10-20T07:44:18.658Z,23.4
2017-10-20T07:45:20.840Z,23.4
2017-10-20T07:46:22.396Z,23.3
2017-10-20T07:47:24.562Z,23.3
2017-10-20T07:48:26.732Z,23.3
2017-10-20T07:49:28.560Z,23.3
2017-10-20T07:50:30.387Z,23.3
2017-10-20T07:51:32.209Z,23.3
2017-10-20T07:52:33.686Z,23.3
2017-10-20T07:53:35.220Z,23.3
2017-10-20T07:54:37.046Z,23.3
2017-10-20T07:55:38.542Z,23.3
2017-10-20T07:56:40.061Z,23.3
2017-10-20T07:57:41.887Z,23.4
2017-10-20T07:58:43.708Z,23.4
2017-10-20T07:59:45.880Z,23.4
2017-10-20T08:00:47.694Z,23.3
2017-10-20T08:01:49.517Z,23.4
2017-10-20T08:02:51.006Z,23.3
2017-10-20T08:03:52.145Z,23.4
2017-10-20T08:04:53.607Z,23.4
2017-10-20T08:05:55.088Z,23.4
2017-10-20T08:06:56.565Z,23.4
2017-10-20T08:07:58.736Z,23.4
2017-10-20T08:09:00.552Z,23.4
2017-10-20T08:10:02.034Z,23.4
2017-10-20T08:11:03.181Z,23.4
2017-10-20T08:12:05.057Z,23.4
2017-10-20T08:13:06.525Z,23.4
2017-10-20T08:14:08.351Z,23.4
2017-10-20T08:15:10.178Z,23.5
2017-10-20T08:16:11.984Z,23.4
2017-10-20T08:17:14.310Z,23.4
2017-10-20T08:18:16.485Z,23.4
2017-10-20T08:19:18.291Z,23.5
2017-10-20T08:20:19.758Z,23.5
2017-10-20T08:21:21.581Z,23.5
2017-10-20T08:22:23.753Z,23.5
2017-10-20T08:23:25.558Z,23.6
2017-10-20T08:24:26.750Z,23.5
2017-10-20T08:25:28.625Z,23.5
2017-10-20T08:26:30.799Z,23.5
2017-10-20T08:27:32.281Z,23.5
2017-10-20T08:28:33.748Z,23.6
2017-10-20T08:29:35.929Z,23.6
2017-10-20T08:30:37.391Z,23.5
2017-10-20T08:31:39.599Z,23.6
2017-10-20T08:32:41.436Z,23.6
2017-10-20T08:33:43.291Z,23.6
2017-10-20T08:34:45.216Z,23.5
2017-10-20T08:35:47.401Z,23.6
2017-10-20T08:36:48.881Z,23.7
2017-10-20T08:37:50.713Z,23.6
2017-10-20T08:38:52.561Z,23.6
2017-10-20T08:39:54.725Z,23.6
2017-10-20T08:40:56.555Z,23.8
2017-10-20T08:41:58.377Z,23.7
2017-10-20T08:42:59.837Z,23.7
2017-10-20T08:44:01.321Z,23.8
2017-10-20T08:45:03.134Z,23.7
2017-10-20T08:46:04.959Z,23.7
2017-10-20T08:47:05.738Z,23.7
2017-10-20T08:48:07.566Z,23.7
2017-10-20T08:49:09.386Z,23.7
2017-10-20T08:50:10.844Z,23.7
2017-10-20T08:51:12.310Z,23.7
2017-10-20T08:52:14.475Z,23.7
2017-10-20T08:53:16.641Z,23.7
2017-10-20T08:54:18.814Z,23.6
2017-10-20T08:55:20.637Z,23.7
2017-10-20T08:56:22.457Z,23.6
2017-10-20T08:57:24.625Z,23.7
2017-10-20T08:58:26.452Z,23.7
2017-10-20T08:59:27.937Z,23.7
2017-10-20T09:00:30.105Z,23.7
2017-10-20T09:01:31.565Z,23.7
2017-10-20T09:02:33.024Z,23.7
2017-10-20T09:03:35.194Z,23.6
2017-10-20T09:04:37.069Z,23.7
2017-10-20T09:05:39.240Z,23.7
2017-10-20T09:06:41.406Z,23.7
2017-10-20T09:07:42.884Z,23.6
2017-10-20T09:08:44.709Z,23.7
2017-10-20T09:09:46.871Z,23.6
2017-10-20T09:10:48.334Z,23.7
2017-10-20T09:11:49.808Z,23.7
2017-10-20T09:12:51.627Z,23.7
2017-10-20T09:13:52.388Z,23.7
2017-10-20T09:14:54.552Z,23.7
2017-10-20T09:15:56.024Z,23.7
2017-10-20T09:16:57.133Z,23.7
2017-10-20T09:17:58.955Z,23.7
2017-10-20T09:19:00.777Z,23.7
2017-10-20T09:20:02.233Z,23.7
2017-10-20T09:21:04.043Z,23.7
2017-10-20T09:22:05.520Z,23.7
2017-10-20T09:23:07.325Z,23.7
2017-10-20T09:24:09.491Z,23.7
2017-10-20T09:25:10.967Z,23.7
2017-10-20T09:26:13.157Z,23.8
2017-10-20T09:27:15.106Z,23.7
2017-10-20T09:28:16.586Z,23.8
2017-10-20T09:29:18.750Z,23.7
2017-10-20T09:30:20.551Z,23.7
2017-10-20T09:31:22.029Z,23.7
2017-10-20T09:32:23.848Z,23.8
2017-10-20T09:33:26.017Z,23.7
2017-10-20T09:34:27.818Z,23.8
2017-10-20T09:35:29.375Z,23.8
2017-10-20T09:36:31.197Z,23.8
2017-10-20T09:37:32.686Z,23.7
2017-10-20T09:38:34.514Z,23.7
2017-10-20T09:39:36.335Z,23.8
2017-10-20T09:40:38.501Z,23.8
2017-10-20T09:41:39.977Z,23.7
2017-10-20T09:42:41.802Z,23.8
2017-10-20T09:43:43.644Z,23.8
2017-10-20T09:44:45.467Z,23.7
2017-10-20T09:45:46.956Z,23.6
2017-10-20T09:46:48.081Z,23.7
2017-10-20T09:47:50.249Z,23.7
2017-10-20T09:48:52.069Z,23.7
2017-10-20T09:49:53.526Z,23.7
2017-10-20T09:50:55.706Z,23.7
2017-10-20T09:51:57.510Z,23.7
2017-10-20T09:52:59.685Z,23.7
2017-10-20T09:54:01.867Z,23.7
2017-10-20T09:55:03.672Z,23.7
2017-10-20T09:56:05.868Z,23.7
2017-10-20T09:57:06.975Z,23.8
2017-10-20T09:58:08.471Z,23.7
2017-10-20T09:59:10.307Z,23.6
2017-10-20T10:00:11.765Z,23.7
2017-10-20T10:01:13.591Z,23.7
2017-10-20T10:02:15.426Z,23.8
2017-10-20T10:03:17.252Z,23.8
2017-10-20T10:04:18.705Z,23.7
2017-10-20T10:05:20.871Z,23.7
2017-10-20T10:06:22.329Z,23.7
2017-10-20T10:07:24.495Z,23.6
2017-10-20T10:08:26.659Z,23.7
2017-10-20T10:09:28.495Z,23.7
2017-10-20T10:10:30.668Z,23.6
2017-10-20T10:11:32.834Z,23.7
2017-10-20T10:12:34.665Z,23.7
2017-10-20T10:13:36.836Z,23.7
2017-10-20T10:14:38.686Z,23.8
2017-10-20T10:15:40.881Z,23.8
2017-10-20T10:16:42.339Z,23.7
2017-10-20T10:17:44.163Z,23.7
2017-10-20T10:18:45.985Z,23.8
2017-10-20T10:19:48.158Z,23.8
2017-10-20T10:20:49.993Z,23.7
2017-10-20T10:21:51.472Z,23.8
2017-10-20T10:22:53.292Z,23.8
2017-10-20T10:23:54.768Z,23.8
2017-10-20T10:24:56.589Z,23.8
2017-10-20T10:25:58.754Z,23.8
2017-10-20T10:27:00.577Z,23.8
2017-10-20T10:28:02.398Z,23.8
2017-10-20T10:29:03.512Z,23.8
2017-10-20T10:30:05.333Z,23.8
2017-10-20T10:31:06.455Z,23.8
2017-10-20T10:32:08.623Z,23.8
2017-10-20T10:33:10.456Z,23.8
2017-10-20T10:34:12.313Z,23.8
2017-10-20T10:35:14.103Z,23.8
2017-10-20T10:36:15.555Z,23.8
2017-10-20T10:37:17.384Z,23.8
2017-10-20T10:38:19.554Z,23.8
2017-10-20T10:39:21.720Z,23.8
2017-10-20T10:40:23.889Z,23.8
2017-10-20T10:41:25.026Z,23.9
2017-10-20T10:42:26.849Z,23.8
2017-10-20T10:43:27.962Z,23.9
2017-10-20T10:44:30.157Z,23.8
2017-10-20T10:45:31.637Z,23.8
2017-10-20T10:46:33.456Z,23.8
2017-10-20T10:47:35.625Z,23.9
2017-10-20T10:48:37.791Z,23.9
2017-10-20T10:49:39.615Z,23.9
2017-10-20T10:50:41.441Z,23.9
2017-10-20T10:51:43.240Z,23.9
2017-10-20T10:52:45.066Z,23.9
2017-10-20T10:53:47.230Z,23.9
2017-10-20T10:54:49.054Z,23.9
2017-10-20T10:55:50.511Z,23.9
2017-10-20T10:56:52.340Z,23.9
2017-10-20T10:57:53.795Z,23.9
2017-10-20T10:58:55.970Z,24
2017-10-20T10:59:57.782Z,23.9
2017-10-20T11:00:59.291Z,24
2017-10-20T11:02:01.117Z,24
2017-10-20T11:03:02.944Z,23.9
2017-10-20T11:04:05.109Z,24
2017-10-20T11:05:06.931Z,23.9
2017-10-20T11:06:08.754Z,23.9
2017-10-20T11:07:10.234Z,24
2017-10-20T11:08:11.716Z,23.9
2017-10-20T11:09:13.538Z,23.9
2017-10-20T11:10:15.015Z,23.9
2017-10-20T11:11:17.185Z,23.9
2017-10-20T11:12:19.353Z,24
2017-10-20T11:13:21.173Z,24
2017-10-20T11:14:22.633Z,23.9
2017-10-20T11:15:24.795Z,23.9
2017-10-20T11:16:26.272Z,24
2017-10-20T11:17:27.391Z,23.9
2017-10-20T11:18:29.563Z,23.9
2017-10-20T11:19:31.392Z,23.9
2017-10-20T11:20:33.192Z,24
2017-10-20T11:21:35.015Z,23.9
2017-10-20T11:22:36.814Z,23.9
2017-10-20T11:23:38.634Z,24
2017-10-20T11:24:40.457Z,23.9
2017-10-20T11:25:42.625Z,24
2017-10-20T11:26:44.792Z,24
2017-10-20T11:27:46.276Z,24
2017-10-20T11:28:48.442Z,24.1
2017-10-20T11:29:50.606Z,24
2017-10-20T11:30:52.433Z,24.1
2017-10-20T11:31:54.599Z,24
2017-10-20T11:32:56.420Z,24
2017-10-20T11:33:58.245Z,24
2017-10-20T11:35:00.070Z,24
2017-10-20T11:36:01.904Z,24
2017-10-20T11:37:03.721Z,24
2017-10-20T11:38:05.547Z,24
2017-10-20T11:39:06.661Z,24
2017-10-20T11:40:08.836Z,24.1
2017-10-20T11:41:10.658Z,24
2017-10-20T11:42:12.486Z,24.1
2017-10-20T11:43:13.965Z,24
2017-10-20T11:44:15.447Z,24
2017-10-20T11:45:17.615Z,23.9
2017-10-20T11:46:19.443Z,24
2017-10-20T11:47:21.269Z,24
2017-10-20T11:48:23.087Z,24.1
2017-10-20T11:49:25.258Z,24
2017-10-20T11:50:26.713Z,24.1
2017-10-20T11:51:28.881Z,24
2017-10-20T11:52:30.359Z,24
2017-10-20T11:53:31.836Z,24
2017-10-20T11:54:33.661Z,24
2017-10-20T11:55:35.832Z,24
2017-10-20T11:56:36.944Z,24
2017-10-20T11:57:38.764Z,24.1
2017-10-20T11:58:40.949Z,24
2017-10-20T11:59:42.427Z,24
2017-10-20T12:00:44.230Z,24.1
2017-10-20T12:01:45.691Z,24
2017-10-20T12:02:47.860Z,24
2017-10-20T12:03:49.325Z,24
2017-10-20T12:04:51.126Z,24.1
2017-10-20T12:05:52.584Z,24
2017-10-20T12:06:54.086Z,24
2017-10-20T12:07:55.212Z,24.1
2017-10-20T12:08:57.038Z,24.1
2017-10-20T12:09:58.859Z,24.1
2017-10-20T12:11:00.682Z,24.1
2017-10-20T12:12:02.853Z,24.1
2017-10-20T12:13:04.677Z,24
2017-10-20T12:14:06.499Z,24
2017-10-20T12:15:08.669Z,24
2017-10-20T12:16:10.489Z,24
2017-10-20T12:17:11.964Z,24
2017-10-20T12:18:13.442Z,24
2017-10-20T12:19:15.621Z,24.1
2017-10-20T12:20:17.789Z,24.1
2017-10-20T12:21:19.613Z,24
2017-10-20T12:22:21.439Z,24
2017-10-20T12:23:23.262Z,24
2017-10-20T12:24:25.085Z,24.1
2017-10-20T12:25:26.906Z,24
2017-10-20T12:26:29.071Z,24.1
2017-10-20T12:27:30.891Z,24.1
2017-10-20T12:28:32.372Z,24
2017-10-20T12:29:34.191Z,24
2017-10-20T12:30:35.673Z,24
2017-10-20T12:31:37.886Z,24
2017-10-20T12:32:39.345Z,24.1
2017-10-20T12:33:40.821Z,24.1
2017-10-20T12:34:42.646Z,24
2017-10-20T12:35:44.820Z,24.1
2017-10-20T12:36:46.980Z,24.1
2017-10-20T12:37:48.462Z,24
2017-10-20T12:38:50.628Z,24.1
2017-10-20T12:39:52.108Z,24.1
2017-10-20T12:40:53.932Z,24
2017-10-20T12:41:56.096Z,24.1
2017-10-20T12:42:58.260Z,24.1
2017-10-20T12:44:00.430Z,24.1
2017-10-20T12:45:02.599Z,24.1
2017-10-20T12:46:04.057Z,24.1
2017-10-20T12:47:06.230Z,24.2
2017-10-20T12:48:08.055Z,24.1
2017-10-20T12:49:10.222Z,24.1
2017-10-20T12:50:12.395Z,24.1
2017-10-20T12:51:14.564Z,24.1
2017-10-20T12:52:16.386Z,24.1
2017-10-20T12:53:18.556Z,24.1
2017-10-20T12:54:20.377Z,24.1
2017-10-20T12:55:22.559Z,24.1
2017-10-20T12:56:24.736Z,24.1
2017-10-20T12:57:26.537Z,24.1
2017-10-20T12:58:28.364Z,24
2017-10-20T12:59:29.842Z,24.1
2017-10-20T13:00:31.667Z,24.1
2017-10-20T13:01:33.831Z,24.1
2017-10-20T13:02:36.002Z,24.1
2017-10-20T13:03:37.456Z,24.1
2017-10-20T13:04:38.935Z,24.1
2017-10-20T13:05:40.756Z,24.1
2017-10-20T13:06:42.581Z,24.1
2017-10-20T13:07:44.411Z,24.1
2017-10-20T13:08:46.232Z,24.1
2017-10-20T13:09:48.397Z,24
2017-10-20T13:10:50.201Z,24.1
2017-10-20T13:11:52.366Z,24.1
2017-10-20T13:12:54.197Z,24
2017-10-20T13:13:56.364Z,24.1
2017-10-20T13:14:58.174Z,24.1
2017-10-20T13:16:00.048Z,24.1
2017-10-20T13:17:01.872Z,24.1
2017-10-20T13:18:03.329Z,24.1
2017-10-20T13:19:05.150Z,24.2
2017-10-20T13:20:06.975Z,24
2017-10-20T13:21:09.141Z,24.1
2017-10-20T13:22:10.594Z,24.2
2017-10-20T13:23:12.415Z,24.1
2017-10-20T13:24:13.885Z,24.1
2017-10-20T13:25:15.361Z,24.1
2017-10-20T13:26:16.844Z,24.1
2017-10-20T13:27:18.306Z,24.1
2017-10-20T13:28:20.137Z,24.1
2017-10-20T13:29:21.957Z,24.1
2017-10-20T13:30:23.096Z,24.2
2017-10-20T13:31:24.919Z,24.1
2017-10-20T13:32:26.719Z,24.1
2017-10-20T13:33:28.522Z,24.1
2017-10-20T13:34:30.347Z,24
2017-10-20T13:35:32.175Z,24.1
2017-10-20T13:36:34.096Z,24.1
2017-10-20T13:37:35.922Z,24
2017-10-20T13:38:38.089Z,24.1
2017-10-20T13:39:40.268Z,24.1
2017-10-20T13:40:42.077Z,24
2017-10-20T13:41:42.848Z,24.1
2017-10-20T13:42:44.669Z,24.1
2017-10-20T13:43:46.495Z,24.1
2017-10-20T13:44:48.329Z,24
2017-10-20T13:45:50.137Z,24.2
2017-10-20T13:46:51.965Z,24
2017-10-20T13:47:53.784Z,24.2
2017-10-20T13:48:55.949Z,24.1
2017-10-20T13:49:57.775Z,24.1
2017-10-20T13:50:59.264Z,24.1
2017-10-20T13:52:00.741Z,24.1
2017-10-20T13:53:02.910Z,24.1
2017-10-20T13:54:04.729Z,24.2
2017-10-20T13:55:05.842Z,24
2017-10-20T13:56:07.670Z,24.1